sensor_id;sensor_type;location;lat;lon;timestamp;temperature;humidity
22006;DHT22;11167;46.988;15.470;2023-07-02T00:00:41;21.70;72.80
22006;DHT22;11167;46.988;15.470;2023-07-02T00:02:42;21.70;72.50
22006;DHT22;11167;46.988;15.470;2023-07-02T00:04:43;21.70;72.60
22006;DHT22;11167;46.988;15.470;2023-07-02T00:06:46;21.70;72.50
22006;DHT22;11167;46.988;15.470;2023-07-02T00:08:47;21.60;72.80
22006;DHT22;11167;46.988;15.470;2023-07-02T00:10:48;21.60;72.50
22006;DHT22;11167;46.988;15.470;2023-07-02T00:12:49;21.60;72.50
22006;DHT22;11167;46.988;15.470;2023-07-02T00:14:50;21.60;72.50
22006;DHT22;11167;46.988;15.470;2023-07-02T00:16:53;21.60;72.50
22006;DHT22;11167;46.988;15.470;2023-07-02T00:18:54;21.60;72.60
22006;DHT22;11167;46.988;15.470;2023-07-02T00:20:55;21.60;72.60
22006;DHT22;11167;46.988;15.470;2023-07-02T00:22:57;21.60;72.60
22006;DHT22;11167;46.988;15.470;2023-07-02T00:24:58;21.60;72.60
22006;DHT22;11167;46.988;15.470;2023-07-02T00:26:59;21.60;72.60
22006;DHT22;11167;46.988;15.470;2023-07-02T00:29:19;21.60;71.90
22006;DHT22;11167;46.988;15.470;2023-07-02T00:31:22;21.60;72.60
22006;DHT22;11167;46.988;15.470;2023-07-02T00:33:24;21.50;72.70
22006;DHT22;11167;46.988;15.470;2023-07-02T00:35:25;21.50;72.70
22006;DHT22;11167;46.988;15.470;2023-07-02T00:37:26;21.50;72.60
22006;DHT22;11167;46.988;15.470;2023-07-02T00:39:27;21.50;72.70
22006;DHT22;11167;46.988;15.470;2023-07-02T00:41:28;21.50;72.70
22006;DHT22;11167;46.988;15.470;2023-07-02T00:43:29;21.50;72.60
22006;DHT22;11167;46.988;15.470;2023-07-02T00:45:31;21.50;72.70
22006;DHT22;11167;46.988;15.470;2023-07-02T00:47:35;21.50;72.70
22006;DHT22;11167;46.988;15.470;2023-07-02T00:49:36;21.50;72.90
22006;DHT22;11167;46.988;15.470;2023-07-02T00:51:37;21.50;72.70
22006;DHT22;11167;46.988;15.470;2023-07-02T00:53:39;21.40;72.70
22006;DHT22;11167;46.988;15.470;2023-07-02T00:56:00;21.40;72.70
22006;DHT22;11167;46.988;15.470;2023-07-02T00:58:01;21.30;72.60
22006;DHT22;11167;46.988;15.470;2023-07-02T01:00:02;21.40;72.70
22006;DHT22;11167;46.988;15.470;2023-07-02T01:02:04;21.40;72.70
22006;DHT22;11167;46.988;15.470;2023-07-02T01:04:06;21.40;72.70
22006;DHT22;11167;46.988;15.470;2023-07-02T01:06:13;21.40;72.70
22006;DHT22;11167;46.988;15.470;2023-07-02T01:08:15;21.40;72.80
22006;DHT22;11167;46.988;15.470;2023-07-02T01:10:16;21.40;72.70
22006;DHT22;11167;46.988;15.470;2023-07-02T01:12:17;21.40;72.80
22006;DHT22;11167;46.988;15.470;2023-07-02T01:16:32;21.30;72.70
22006;DHT22;11167;46.988;15.470;2023-07-02T01:18:34;21.30;72.70
22006;DHT22;11167;46.988;15.470;2023-07-02T01:20:38;21.30;72.70
22006;DHT22;11167;46.988;15.470;2023-07-02T01:22:40;21.30;72.80
22006;DHT22;11167;46.988;15.470;2023-07-02T01:24:41;21.30;72.70
22006;DHT22;11167;46.988;15.470;2023-07-02T01:26:42;21.30;72.80
22006;DHT22;11167;46.988;15.470;2023-07-02T01:28:43;21.30;72.80
22006;DHT22;11167;46.988;15.470;2023-07-02T01:30:45;21.30;72.80
22006;DHT22;11167;46.988;15.470;2023-07-02T01:32:46;21.30;72.90
22006;DHT22;11167;46.988;15.470;2023-07-02T01:34:48;21.20;72.80
22006;DHT22;11167;46.988;15.470;2023-07-02T01:36:49;21.30;72.80
22006;DHT22;11167;46.988;15.470;2023-07-02T01:38:50;21.20;72.80
22006;DHT22;11167;46.988;15.470;2023-07-02T01:40:52;21.20;72.80
22006;DHT22;11167;46.988;15.470;2023-07-02T01:42:53;21.20;72.80
22006;DHT22;11167;46.988;15.470;2023-07-02T01:44:54;21.20;72.90
22006;DHT22;11167;46.988;15.470;2023-07-02T01:46:55;21.20;72.10
22006;DHT22;11167;46.988;15.470;2023-07-02T01:48:57;21.20;72.90
22006;DHT22;11167;46.988;15.470;2023-07-02T01:50:58;21.20;72.90
22006;DHT22;11167;46.988;15.470;2023-07-02T01:52:59;21.20;72.90
22006;DHT22;11167;46.988;15.470;2023-07-02T01:55:01;21.20;73.90
22006;DHT22;11167;46.988;15.470;2023-07-02T01:57:03;21.20;72.90
22006;DHT22;11167;46.988;15.470;2023-07-02T01:59:04;21.20;72.90
22006;DHT22;11167;46.988;15.470;2023-07-02T02:01:05;21.20;73.80
22006;DHT22;11167;46.988;15.470;2023-07-02T02:03:06;21.20;73.00
22006;DHT22;11167;46.988;15.470;2023-07-02T02:05:08;21.20;72.90
22006;DHT22;11167;46.988;15.470;2023-07-02T02:07:10;21.10;72.90
22006;DHT22;11167;46.988;15.470;2023-07-02T02:09:11;21.10;72.90
22006;DHT22;11167;46.988;15.470;2023-07-02T02:11:12;21.10;72.90
22006;DHT22;11167;46.988;15.470;2023-07-02T02:13:13;21.10;72.90
22006;DHT22;11167;46.988;15.470;2023-07-02T02:15:14;21.10;72.90
22006;DHT22;11167;46.988;15.470;2023-07-02T02:17:15;21.10;73.10
22006;DHT22;11167;46.988;15.470;2023-07-02T02:19:17;21.10;73.00
22006;DHT22;11167;46.988;15.470;2023-07-02T02:21:18;21.10;73.10
22006;DHT22;11167;46.988;15.470;2023-07-02T02:23:19;21.10;73.00
22006;DHT22;11167;46.988;15.470;2023-07-02T02:25:20;21.10;73.00
22006;DHT22;11167;46.988;15.470;2023-07-02T02:27:21;21.00;73.00
22006;DHT22;11167;46.988;15.470;2023-07-02T02:29:22;21.00;73.00
22006;DHT22;11167;46.988;15.470;2023-07-02T02:31:24;21.00;73.00
22006;DHT22;11167;46.988;15.470;2023-07-02T02:33:25;21.00;73.00
22006;DHT22;11167;46.988;15.470;2023-07-02T02:35:26;21.00;73.10
22006;DHT22;11167;46.988;15.470;2023-07-02T02:37:27;21.00;73.10
22006;DHT22;11167;46.988;15.470;2023-07-02T02:39:28;21.00;73.10
22006;DHT22;11167;46.988;15.470;2023-07-02T02:41:29;21.00;73.10
22006;DHT22;11167;46.988;15.470;2023-07-02T02:43:30;21.00;73.10
22006;DHT22;11167;46.988;15.470;2023-07-02T02:45:31;21.00;73.10
22006;DHT22;11167;46.988;15.470;2023-07-02T02:47:32;21.00;73.10
22006;DHT22;11167;46.988;15.470;2023-07-02T02:49:33;21.00;73.10
22006;DHT22;11167;46.988;15.470;2023-07-02T02:51:34;21.00;73.10
22006;DHT22;11167;46.988;15.470;2023-07-02T02:53:35;20.90;73.10
22006;DHT22;11167;46.988;15.470;2023-07-02T02:55:37;20.90;73.10
22006;DHT22;11167;46.988;15.470;2023-07-02T02:57:38;20.90;73.10
22006;DHT22;11167;46.988;15.470;2023-07-02T02:59:40;20.90;73.10
22006;DHT22;11167;46.988;15.470;2023-07-02T03:01:40;20.90;73.20
22006;DHT22;11167;46.988;15.470;2023-07-02T03:03:42;20.90;73.20
22006;DHT22;11167;46.988;15.470;2023-07-02T03:05:45;20.90;73.20
22006;DHT22;11167;46.988;15.470;2023-07-02T03:07:49;20.90;73.30
22006;DHT22;11167;46.988;15.470;2023-07-02T03:09:50;20.90;73.30
22006;DHT22;11167;46.988;15.470;2023-07-02T03:11:51;20.80;74.00
22006;DHT22;11167;46.988;15.470;2023-07-02T03:13:52;20.80;74.00
22006;DHT22;11167;46.988;15.470;2023-07-02T03:15:53;20.80;73.20
22006;DHT22;11167;46.988;15.470;2023-07-02T03:17:54;20.80;72.80
22006;DHT22;11167;46.988;15.470;2023-07-02T03:19:56;20.80;73.30
22006;DHT22;11167;46.988;15.470;2023-07-02T03:21:57;20.80;73.30
22006;DHT22;11167;46.988;15.470;2023-07-02T03:23:59;20.80;73.30
22006;DHT22;11167;46.988;15.470;2023-07-02T03:26:00;20.80;73.30
22006;DHT22;11167;46.988;15.470;2023-07-02T03:28:01;20.80;73.30
22006;DHT22;11167;46.988;15.470;2023-07-02T03:30:03;20.80;73.40
22006;DHT22;11167;46.988;15.470;2023-07-02T03:32:05;20.80;73.40
22006;DHT22;11167;46.988;15.470;2023-07-02T03:36:28;20.70;73.30
22006;DHT22;11167;46.988;15.470;2023-07-02T03:38:29;20.80;73.40
22006;DHT22;11167;46.988;15.470;2023-07-02T03:40:30;20.70;73.40
22006;DHT22;11167;46.988;15.470;2023-07-02T03:42:32;20.70;73.40
22006;DHT22;11167;46.988;15.470;2023-07-02T03:44:34;20.70;73.50
22006;DHT22;11167;46.988;15.470;2023-07-02T03:46:35;20.70;73.50
22006;DHT22;11167;46.988;15.470;2023-07-02T03:48:36;20.70;73.50
22006;DHT22;11167;46.988;15.470;2023-07-02T03:50:37;20.70;73.50
22006;DHT22;11167;46.988;15.470;2023-07-02T03:52:38;20.70;73.50
22006;DHT22;11167;46.988;15.470;2023-07-02T03:54:39;20.60;73.40
22006;DHT22;11167;46.988;15.470;2023-07-02T03:56:40;20.70;73.50
22006;DHT22;11167;46.988;15.470;2023-07-02T03:58:41;20.60;73.50
22006;DHT22;11167;46.988;15.470;2023-07-02T04:00:43;20.60;73.50
22006;DHT22;11167;46.988;15.470;2023-07-02T04:02:45;20.60;73.50
22006;DHT22;11167;46.988;15.470;2023-07-02T04:04:46;20.60;73.50
22006;DHT22;11167;46.988;15.470;2023-07-02T04:06:47;20.60;73.50
22006;DHT22;11167;46.988;15.470;2023-07-02T04:08:48;20.60;73.50
22006;DHT22;11167;46.988;15.470;2023-07-02T04:10:49;20.60;73.50
22006;DHT22;11167;46.988;15.470;2023-07-02T04:12:50;20.60;73.60
22006;DHT22;11167;46.988;15.470;2023-07-02T04:14:51;20.50;73.50
22006;DHT22;11167;46.988;15.470;2023-07-02T04:16:52;20.50;73.50
22006;DHT22;11167;46.988;15.470;2023-07-02T04:18:53;20.50;73.50
22006;DHT22;11167;46.988;15.470;2023-07-02T04:20:55;20.50;73.50
22006;DHT22;11167;46.988;15.470;2023-07-02T04:22:56;20.50;73.50
22006;DHT22;11167;46.988;15.470;2023-07-02T04:24:57;20.50;73.50
22006;DHT22;11167;46.988;15.470;2023-07-02T04:26:58;20.50;73.50
22006;DHT22;11167;46.988;15.470;2023-07-02T04:29:00;20.50;73.50
22006;DHT22;11167;46.988;15.470;2023-07-02T04:31:01;20.50;73.60
22006;DHT22;11167;46.988;15.470;2023-07-02T04:33:02;20.50;73.60
22006;DHT22;11167;46.988;15.470;2023-07-02T04:35:03;20.40;73.50
22006;DHT22;11167;46.988;15.470;2023-07-02T04:37:05;20.40;73.70
22006;DHT22;11167;46.988;15.470;2023-07-02T04:39:08;20.40;73.60
22006;DHT22;11167;46.988;15.470;2023-07-02T04:41:09;20.40;73.60
22006;DHT22;11167;46.988;15.470;2023-07-02T04:43:11;20.40;73.60
22006;DHT22;11167;46.988;15.470;2023-07-02T04:45:14;20.30;73.50
22006;DHT22;11167;46.988;15.470;2023-07-02T04:47:16;20.40;73.70
22006;DHT22;11167;46.988;15.470;2023-07-02T04:49:17;20.40;73.70
22006;DHT22;11167;46.988;15.470;2023-07-02T04:51:20;20.40;73.70
22006;DHT22;11167;46.988;15.470;2023-07-02T04:53:22;20.40;73.70
22006;DHT22;11167;46.988;15.470;2023-07-02T04:55:23;20.40;73.70
22006;DHT22;11167;46.988;15.470;2023-07-02T04:57:24;20.40;73.70
22006;DHT22;11167;46.988;15.470;2023-07-02T04:59:25;20.30;73.60
22006;DHT22;11167;46.988;15.470;2023-07-02T05:01:27;20.30;73.70
22006;DHT22;11167;46.988;15.470;2023-07-02T05:03:28;20.30;73.60
22006;DHT22;11167;46.988;15.470;2023-07-02T05:05:30;20.30;73.70
22006;DHT22;11167;46.988;15.470;2023-07-02T05:07:31;20.30;73.70
22006;DHT22;11167;46.988;15.470;2023-07-02T05:09:32;20.30;73.70
22006;DHT22;11167;46.988;15.470;2023-07-02T05:11:33;20.30;73.70
22006;DHT22;11167;46.988;15.470;2023-07-02T05:13:34;20.30;73.70
22006;DHT22;11167;46.988;15.470;2023-07-02T05:15:35;20.30;73.70
22006;DHT22;11167;46.988;15.470;2023-07-02T05:17:36;20.30;73.70
22006;DHT22;11167;46.988;15.470;2023-07-02T05:19:37;20.30;73.70
22006;DHT22;11167;46.988;15.470;2023-07-02T05:21:38;20.30;73.70
22006;DHT22;11167;46.988;15.470;2023-07-02T05:23:40;20.30;73.70
22006;DHT22;11167;46.988;15.470;2023-07-02T05:25:41;20.30;73.70
22006;DHT22;11167;46.988;15.470;2023-07-02T05:27:42;20.30;73.70
22006;DHT22;11167;46.988;15.470;2023-07-02T05:29:43;20.30;73.70
22006;DHT22;11167;46.988;15.470;2023-07-02T05:31:45;20.30;73.70
22006;DHT22;11167;46.988;15.470;2023-07-02T05:33:46;20.20;73.70
22006;DHT22;11167;46.988;15.470;2023-07-02T05:35:46;20.20;74.00
22006;DHT22;11167;46.988;15.470;2023-07-02T05:37:47;20.30;73.70
22006;DHT22;11167;46.988;15.470;2023-07-02T05:39:48;20.20;73.70
22006;DHT22;11167;46.988;15.470;2023-07-02T05:41:49;20.20;73.70
22006;DHT22;11167;46.988;15.470;2023-07-02T05:43:50;20.20;73.80
22006;DHT22;11167;46.988;15.470;2023-07-02T05:45:52;20.20;73.70
22006;DHT22;11167;46.988;15.470;2023-07-02T05:47:53;20.30;73.90
22006;DHT22;11167;46.988;15.470;2023-07-02T05:49:54;20.30;73.90
22006;DHT22;11167;46.988;15.470;2023-07-02T05:51:55;20.30;73.90
22006;DHT22;11167;46.988;15.470;2023-07-02T05:53:56;20.20;73.90
22006;DHT22;11167;46.988;15.470;2023-07-02T05:55:57;20.30;73.90
22006;DHT22;11167;46.988;15.470;2023-07-02T05:57:58;20.20;73.80
22006;DHT22;11167;46.988;15.470;2023-07-02T06:00:02;20.20;73.70
22006;DHT22;11167;46.988;15.470;2023-07-02T06:02:03;20.30;73.90
22006;DHT22;11167;46.988;15.470;2023-07-02T06:04:04;20.20;73.90
22006;DHT22;11167;46.988;15.470;2023-07-02T06:06:05;20.20;73.20
22006;DHT22;11167;46.988;15.470;2023-07-02T06:08:06;20.20;73.80
22006;DHT22;11167;46.988;15.470;2023-07-02T06:10:07;20.20;73.90
22006;DHT22;11167;46.988;15.470;2023-07-02T06:12:09;20.20;73.70
22006;DHT22;11167;46.988;15.470;2023-07-02T06:14:11;20.20;73.70
22006;DHT22;11167;46.988;15.470;2023-07-02T06:16:12;20.20;73.70
22006;DHT22;11167;46.988;15.470;2023-07-02T06:18:13;20.20;73.70
22006;DHT22;11167;46.988;15.470;2023-07-02T06:20:14;20.20;73.80
22006;DHT22;11167;46.988;15.470;2023-07-02T06:22:15;20.20;73.70
22006;DHT22;11167;46.988;15.470;2023-07-02T06:24:16;20.20;73.90
22006;DHT22;11167;46.988;15.470;2023-07-02T06:26:17;20.20;73.80
22006;DHT22;11167;46.988;15.470;2023-07-02T06:28:18;20.20;73.90
22006;DHT22;11167;46.988;15.470;2023-07-02T06:30:19;20.20;73.70
22006;DHT22;11167;46.988;15.470;2023-07-02T06:32:21;20.20;73.20
22006;DHT22;11167;46.988;15.470;2023-07-02T06:34:22;20.20;73.70
22006;DHT22;11167;46.988;15.470;2023-07-02T06:36:23;20.20;73.80
22006;DHT22;11167;46.988;15.470;2023-07-02T06:38:24;20.20;73.70
22006;DHT22;11167;46.988;15.470;2023-07-02T06:40:25;20.20;73.70
22006;DHT22;11167;46.988;15.470;2023-07-02T06:42:26;20.20;73.70
22006;DHT22;11167;46.988;15.470;2023-07-02T06:44:27;20.20;73.70
22006;DHT22;11167;46.988;15.470;2023-07-02T06:46:29;20.20;73.70
22006;DHT22;11167;46.988;15.470;2023-07-02T06:48:31;20.20;73.70
22006;DHT22;11167;46.988;15.470;2023-07-02T06:50:31;20.20;73.70
22006;DHT22;11167;46.988;15.470;2023-07-02T06:52:33;20.20;73.70
22006;DHT22;11167;46.988;15.470;2023-07-02T06:54:34;20.20;73.80
22006;DHT22;11167;46.988;15.470;2023-07-02T06:56:35;20.20;73.70
22006;DHT22;11167;46.988;15.470;2023-07-02T06:58:36;20.20;73.70
22006;DHT22;11167;46.988;15.470;2023-07-02T07:00:37;20.20;73.80
22006;DHT22;11167;46.988;15.470;2023-07-02T07:02:38;20.20;73.80
22006;DHT22;11167;46.988;15.470;2023-07-02T07:04:39;20.20;73.80
22006;DHT22;11167;46.988;15.470;2023-07-02T07:06:41;20.20;73.80
22006;DHT22;11167;46.988;15.470;2023-07-02T07:08:43;20.20;74.00
22006;DHT22;11167;46.988;15.470;2023-07-02T07:10:44;20.20;73.80
22006;DHT22;11167;46.988;15.470;2023-07-02T07:12:46;20.20;73.70
22006;DHT22;11167;46.988;15.470;2023-07-02T07:14:47;20.20;73.70
22006;DHT22;11167;46.988;15.470;2023-07-02T07:16:48;20.20;73.70
22006;DHT22;11167;46.988;15.470;2023-07-02T07:18:49;20.20;73.80
22006;DHT22;11167;46.988;15.470;2023-07-02T07:20:50;20.20;73.80
22006;DHT22;11167;46.988;15.470;2023-07-02T07:22:53;20.20;73.40
22006;DHT22;11167;46.988;15.470;2023-07-02T07:24:54;20.20;73.80
22006;DHT22;11167;46.988;15.470;2023-07-02T07:26:55;20.20;73.80
22006;DHT22;11167;46.988;15.470;2023-07-02T07:28:56;20.20;73.90
22006;DHT22;11167;46.988;15.470;2023-07-02T07:30:58;20.20;73.90
22006;DHT22;11167;46.988;15.470;2023-07-02T07:33:00;20.20;73.90
22006;DHT22;11167;46.988;15.470;2023-07-02T07:35:01;20.20;73.90
22006;DHT22;11167;46.988;15.470;2023-07-02T07:37:02;20.20;73.90
22006;DHT22;11167;46.988;15.470;2023-07-02T07:39:03;20.20;73.90
22006;DHT22;11167;46.988;15.470;2023-07-02T07:41:04;20.20;73.90
22006;DHT22;11167;46.988;15.470;2023-07-02T07:43:06;20.20;73.90
22006;DHT22;11167;46.988;15.470;2023-07-02T07:45:08;20.20;74.00
22006;DHT22;11167;46.988;15.470;2023-07-02T07:47:09;20.30;74.10
22006;DHT22;11167;46.988;15.470;2023-07-02T07:49:12;20.20;74.10
22006;DHT22;11167;46.988;15.470;2023-07-02T07:51:14;20.30;74.10
22006;DHT22;11167;46.988;15.470;2023-07-02T07:53:15;20.30;74.20
22006;DHT22;11167;46.988;15.470;2023-07-02T07:55:16;20.30;74.20
22006;DHT22;11167;46.988;15.470;2023-07-02T07:57:17;20.30;74.30
22006;DHT22;11167;46.988;15.470;2023-07-02T07:59:18;20.30;74.30
22006;DHT22;11167;46.988;15.470;2023-07-02T08:01:19;20.30;74.30
22006;DHT22;11167;46.988;15.470;2023-07-02T08:03:21;20.30;74.40
22006;DHT22;11167;46.988;15.470;2023-07-02T08:05:22;20.30;74.40
22006;DHT22;11167;46.988;15.470;2023-07-02T08:07:23;20.30;74.40
22006;DHT22;11167;46.988;15.470;2023-07-02T08:09:24;20.40;74.50
22006;DHT22;11167;46.988;15.470;2023-07-02T08:11:25;20.40;74.60
22006;DHT22;11167;46.988;15.470;2023-07-02T08:13:26;20.40;74.60
22006;DHT22;11167;46.988;15.470;2023-07-02T08:15:28;20.40;74.60
22006;DHT22;11167;46.988;15.470;2023-07-02T08:17:30;20.40;74.60
22006;DHT22;11167;46.988;15.470;2023-07-02T08:19:31;20.40;74.70
22006;DHT22;11167;46.988;15.470;2023-07-02T08:21:32;20.40;74.60
22006;DHT22;11167;46.988;15.470;2023-07-02T08:23:33;20.50;74.70
22006;DHT22;11167;46.988;15.470;2023-07-02T08:25:35;20.50;74.80
22006;DHT22;11167;46.988;15.470;2023-07-02T08:27:36;20.50;74.70
22006;DHT22;11167;46.988;15.470;2023-07-02T08:29:37;20.50;74.80
22006;DHT22;11167;46.988;15.470;2023-07-02T08:31:38;20.50;74.80
22006;DHT22;11167;46.988;15.470;2023-07-02T08:33:40;20.50;74.80
22006;DHT22;11167;46.988;15.470;2023-07-02T08:35:41;20.60;74.90
22006;DHT22;11167;46.988;15.470;2023-07-02T08:37:42;20.60;74.90
22006;DHT22;11167;46.988;15.470;2023-07-02T08:39:43;20.60;74.90
22006;DHT22;11167;46.988;15.470;2023-07-02T08:41:45;20.60;75.00
22006;DHT22;11167;46.988;15.470;2023-07-02T08:43:47;20.60;74.90
22006;DHT22;11167;46.988;15.470;2023-07-02T08:45:50;20.60;74.90
22006;DHT22;11167;46.988;15.470;2023-07-02T08:47:52;20.70;75.00
22006;DHT22;11167;46.988;15.470;2023-07-02T08:49:55;20.70;74.90
22006;DHT22;11167;46.988;15.470;2023-07-02T08:51:57;20.70;75.00
22006;DHT22;11167;46.988;15.470;2023-07-02T08:53:58;20.70;75.00
22006;DHT22;11167;46.988;15.470;2023-07-02T08:56:02;20.70;74.90
22006;DHT22;11167;46.988;15.470;2023-07-02T08:58:03;20.70;74.90
22006;DHT22;11167;46.988;15.470;2023-07-02T09:00:09;20.70;74.90
22006;DHT22;11167;46.988;15.470;2023-07-02T09:02:11;20.70;74.90
22006;DHT22;11167;46.988;15.470;2023-07-02T09:04:20;20.70;74.90
22006;DHT22;11167;46.988;15.470;2023-07-02T09:06:19;20.80;74.90
22006;DHT22;11167;46.988;15.470;2023-07-02T09:08:27;20.80;74.90
22006;DHT22;11167;46.988;15.470;2023-07-02T09:10:29;20.80;74.90
22006;DHT22;11167;46.988;15.470;2023-07-02T09:12:31;20.80;74.90
22006;DHT22;11167;46.988;15.470;2023-07-02T09:14:33;20.80;74.90
22006;DHT22;11167;46.988;15.470;2023-07-02T09:16:34;20.80;74.90
22006;DHT22;11167;46.988;15.470;2023-07-02T09:18:37;20.80;75.00
22006;DHT22;11167;46.988;15.470;2023-07-02T09:20:38;20.90;75.00
22006;DHT22;11167;46.988;15.470;2023-07-02T09:22:40;20.90;75.00
22006;DHT22;11167;46.988;15.470;2023-07-02T09:24:41;20.90;75.00
22006;DHT22;11167;46.988;15.470;2023-07-02T09:26:44;20.90;75.00
22006;DHT22;11167;46.988;15.470;2023-07-02T09:28:45;21.00;75.10
22006;DHT22;11167;46.988;15.470;2023-07-02T09:30:57;21.00;75.00
22006;DHT22;11167;46.988;15.470;2023-07-02T09:33:06;21.00;75.10
22006;DHT22;11167;46.988;15.470;2023-07-02T09:35:04;21.00;75.00
22006;DHT22;11167;46.988;15.470;2023-07-02T09:37:06;21.00;75.00
22006;DHT22;11167;46.988;15.470;2023-07-02T09:39:14;21.10;75.10
22006;DHT22;11167;46.988;15.470;2023-07-02T09:41:16;21.10;75.10
22006;DHT22;11167;46.988;15.470;2023-07-02T09:43:17;21.10;76.00
22006;DHT22;11167;46.988;15.470;2023-07-02T09:45:20;21.10;75.10
22006;DHT22;11167;46.988;15.470;2023-07-02T09:47:22;21.10;75.10
22006;DHT22;11167;46.988;15.470;2023-07-02T09:49:24;21.20;75.30
22006;DHT22;11167;46.988;15.470;2023-07-02T09:51:26;21.20;75.30
22006;DHT22;11167;46.988;15.470;2023-07-02T09:53:28;21.20;75.30
22006;DHT22;11167;46.988;15.470;2023-07-02T09:55:29;21.20;75.30
22006;DHT22;11167;46.988;15.470;2023-07-02T09:57:31;21.20;75.30
22006;DHT22;11167;46.988;15.470;2023-07-02T09:59:33;21.30;75.40
22006;DHT22;11167;46.988;15.470;2023-07-02T10:01:34;21.30;75.40
22006;DHT22;11167;46.988;15.470;2023-07-02T10:03:36;21.30;75.40
22006;DHT22;11167;46.988;15.470;2023-07-02T10:05:37;21.40;75.50
22006;DHT22;11167;46.988;15.470;2023-07-02T10:07:38;21.40;75.50
22006;DHT22;11167;46.988;15.470;2023-07-02T10:09:44;21.40;75.50
22006;DHT22;11167;46.988;15.470;2023-07-02T10:11:45;21.50;75.50
22006;DHT22;11167;46.988;15.470;2023-07-02T10:13:58;21.50;75.50
22006;DHT22;11167;46.988;15.470;2023-07-02T10:16:00;21.50;75.50
22006;DHT22;11167;46.988;15.470;2023-07-02T10:17:58;21.50;75.40
22006;DHT22;11167;46.988;15.470;2023-07-02T10:20:03;21.60;75.50
22006;DHT22;11167;46.988;15.470;2023-07-02T10:22:08;21.60;75.50
22006;DHT22;11167;46.988;15.470;2023-07-02T10:26:16;21.60;75.50
22006;DHT22;11167;46.988;15.470;2023-07-02T10:28:19;21.70;75.60
22006;DHT22;11167;46.988;15.470;2023-07-02T10:30:37;21.70;75.60
22006;DHT22;11167;46.988;15.470;2023-07-02T10:32:39;21.70;75.60
22006;DHT22;11167;46.988;15.470;2023-07-02T10:34:41;21.70;75.60
22006;DHT22;11167;46.988;15.470;2023-07-02T10:36:42;21.70;75.60
22006;DHT22;11167;46.988;15.470;2023-07-02T10:38:43;21.80;76.00
22006;DHT22;11167;46.988;15.470;2023-07-02T10:40:44;21.80;75.60
22006;DHT22;11167;46.988;15.470;2023-07-02T10:42:49;21.90;75.70
22006;DHT22;11167;46.988;15.470;2023-07-02T10:44:51;21.90;75.70
22006;DHT22;11167;46.988;15.470;2023-07-02T10:46:53;21.90;75.70
22006;DHT22;11167;46.988;15.470;2023-07-02T10:48:56;21.90;75.70
22006;DHT22;11167;46.988;15.470;2023-07-02T10:50:57;21.90;75.70
22006;DHT22;11167;46.988;15.470;2023-07-02T10:52:58;22.00;75.80
22006;DHT22;11167;46.988;15.470;2023-07-02T10:54:59;22.00;75.70
22006;DHT22;11167;46.988;15.470;2023-07-02T10:57:01;22.00;75.70
22006;DHT22;11167;46.988;15.470;2023-07-02T10:59:03;22.10;75.80
22006;DHT22;11167;46.988;15.470;2023-07-02T11:01:04;22.10;75.80
22006;DHT22;11167;46.988;15.470;2023-07-02T11:03:05;22.10;75.80
22006;DHT22;11167;46.988;15.470;2023-07-02T11:05:09;22.10;75.80
22006;DHT22;11167;46.988;15.470;2023-07-02T11:07:14;22.20;75.90
22006;DHT22;11167;46.988;15.470;2023-07-02T11:09:18;22.20;75.80
22006;DHT22;11167;46.988;15.470;2023-07-02T11:11:23;22.20;75.90
22006;DHT22;11167;46.988;15.470;2023-07-02T11:13:25;22.30;76.00
22006;DHT22;11167;46.988;15.470;2023-07-02T11:15:46;22.30;75.90
22006;DHT22;11167;46.988;15.470;2023-07-02T11:17:48;22.30;75.50
22006;DHT22;11167;46.988;15.470;2023-07-02T11:19:50;22.30;75.90
22006;DHT22;11167;46.988;15.470;2023-07-02T11:21:53;22.30;75.90
22006;DHT22;11167;46.988;15.470;2023-07-02T11:24:07;22.40;75.90
22006;DHT22;11167;46.988;15.470;2023-07-02T11:26:11;22.40;76.00
22006;DHT22;11167;46.988;15.470;2023-07-02T11:28:13;22.40;76.00
22006;DHT22;11167;46.988;15.470;2023-07-02T11:30:14;22.40;75.80
22006;DHT22;11167;46.988;15.470;2023-07-02T11:32:15;22.50;75.90
22006;DHT22;11167;46.988;15.470;2023-07-02T11:34:20;22.50;75.80
22006;DHT22;11167;46.988;15.470;2023-07-02T11:36:22;22.50;75.80
22006;DHT22;11167;46.988;15.470;2023-07-02T11:38:24;22.60;75.90
22006;DHT22;11167;46.988;15.470;2023-07-02T11:40:25;22.60;75.90
22006;DHT22;11167;46.988;15.470;2023-07-02T11:42:29;22.60;75.80
22006;DHT22;11167;46.988;15.470;2023-07-02T11:44:30;22.60;75.80
22006;DHT22;11167;46.988;15.470;2023-07-02T11:46:31;22.60;75.80
22006;DHT22;11167;46.988;15.470;2023-07-02T11:48:32;22.70;75.90
22006;DHT22;11167;46.988;15.470;2023-07-02T11:50:34;22.70;75.90
22006;DHT22;11167;46.988;15.470;2023-07-02T11:52:35;22.70;75.90
22006;DHT22;11167;46.988;15.470;2023-07-02T11:54:36;22.80;75.90
22006;DHT22;11167;46.988;15.470;2023-07-02T11:56:40;22.70;76.10
22006;DHT22;11167;46.988;15.470;2023-07-02T11:58:43;22.80;76.70
22006;DHT22;11167;46.988;15.470;2023-07-02T12:00:44;22.80;75.90
22006;DHT22;11167;46.988;15.470;2023-07-02T12:02:45;22.80;75.90
22006;DHT22;11167;46.988;15.470;2023-07-02T12:04:46;22.90;75.90
22006;DHT22;11167;46.988;15.470;2023-07-02T12:06:47;22.90;75.90
22006;DHT22;11167;46.988;15.470;2023-07-02T12:08:48;22.90;75.90
22006;DHT22;11167;46.988;15.470;2023-07-02T12:10:49;22.90;76.00
22006;DHT22;11167;46.988;15.470;2023-07-02T12:12:50;23.00;76.00
22006;DHT22;11167;46.988;15.470;2023-07-02T12:14:51;23.00;76.00
22006;DHT22;11167;46.988;15.470;2023-07-02T12:16:52;23.00;76.00
22006;DHT22;11167;46.988;15.470;2023-07-02T12:18:54;23.00;75.90
22006;DHT22;11167;46.988;15.470;2023-07-02T12:20:55;23.10;76.00
22006;DHT22;11167;46.988;15.470;2023-07-02T12:22:56;23.10;76.10
22006;DHT22;11167;46.988;15.470;2023-07-02T12:24:58;23.10;76.10
22006;DHT22;11167;46.988;15.470;2023-07-02T12:26:59;23.10;76.10
22006;DHT22;11167;46.988;15.470;2023-07-02T12:29:00;23.20;76.10
22006;DHT22;11167;46.988;15.470;2023-07-02T12:31:02;23.20;76.60
22006;DHT22;11167;46.988;15.470;2023-07-02T12:33:03;23.30;76.10
22006;DHT22;11167;46.988;15.470;2023-07-02T12:35:05;23.30;76.00
22006;DHT22;11167;46.988;15.470;2023-07-02T12:37:08;23.30;76.10
22006;DHT22;11167;46.988;15.470;2023-07-02T12:39:09;23.30;76.10
22006;DHT22;11167;46.988;15.470;2023-07-02T12:41:10;23.40;76.10
22006;DHT22;11167;46.988;15.470;2023-07-02T12:43:11;23.40;76.00